Angola, New York
Current Conditions -  °F | °C
As of 11:53 PM on Saturday 22 Nov 2014 (Local Time) from KDKK Reporting Station
Overcast Overcast  
Wind Chill:   Ceiling: 4200
Heat Index:   Visibility: 10mi
Dew Point:   Wind: 18mph
Humidity: 71%   Direction: 190°S
Pressure: 30"   Gusts: NA
Location:  42.64°N, 79.03°W
Report Text: KDKK 230453Z AUTO 19016KT 10SM OVC042 07/02 A3000 RMK AO2 SLP164 T00670017 400721072
Loading
Personal Weather Stations






























Interactive Weather Map New forecast layout! Learn more

10-Day Weather Forecast

Advertisements
Track Severe Weather on mobile